Time;durP1;ratioP1;P1;durP2;ratioP2;P2;SDS_P1;SDS_P2;PMS_P1;PMS_P2;Temp;Humidity;BMP_temperature;BMP_pressure;BME280_temperature;BME280_humidity;BME280_pressure;Samples;Min_cycle;Max_cycle;Signal;HPM_P1;HPM_P2
2023/03/31 00:00:47;;;;;;;9.80;3.70;;;20.60;65.30;;;;;;5036965;28;20176;-75
2023/03/31 00:03:20;;;;;;;8.63;3.83;;;20.60;65.20;;;;;;4970616;28;20027;-76
2023/03/31 00:05:47;;;;;;;8.05;3.30;;;20.70;65.30;;;;;;4970470;28;20035;-75
2023/03/31 00:08:13;;;;;;;11.10;3.40;;;20.60;65.10;;;;;;5036848;28;20039;-75
2023/03/31 00:10:45;;;;;;;10.88;3.40;;;20.70;65.20;;;;;;4970131;28;20030;-76
2023/03/31 00:13:11;;;;;;;11.63;3.90;;;20.60;65.10;;;;;;5037158;28;20037;-75
2023/03/31 00:15:37;;;;;;;9.30;3.22;;;20.60;65.10;;;;;;5036736;28;20046;-75
2023/03/31 00:18:03;;;;;;;8.68;3.88;;;20.60;65.10;;;;;;4970344;28;20027;-75
2023/03/31 00:20:32;;;;;;;8.00;3.70;;;20.60;65.20;;;;;;4969967;28;20031;-75
2023/03/31 00:23:00;;;;;;;10.90;4.00;;;20.60;65.20;;;;;;4970194;28;20088;-75
2023/03/31 00:25:26;;;;;;;10.57;4.07;;;20.60;65.20;;;;;;4970671;28;20069;-75
2023/03/31 00:27:52;;;;;;;8.07;4.10;;;20.60;65.20;;;;;;4970412;28;20026;-75
2023/03/31 00:30:18;;;;;;;13.82;4.30;;;20.50;65.20;;;;;;5036455;28;20537;-75
2023/03/31 00:32:44;;;;;;;10.70;3.65;;;20.60;65.30;;;;;;5036655;28;20408;-75
2023/03/31 00:35:10;;;;;;;10.82;3.85;;;20.50;65.40;;;;;;4970065;28;20391;-75
2023/03/31 00:37:36;;;;;;;12.45;4.15;;;20.50;65.30;;;;;;5036545;28;20027;-75
2023/03/31 00:40:08;;;;;;;8.10;3.45;;;20.50;65.40;;;;;;5036574;28;20545;-75
2023/03/31 00:42:40;;;;;;;7.72;3.95;;;20.50;65.40;;;;;;5036476;28;20034;-76
2023/03/31 00:45:15;;;;;;;7.97;3.72;;;20.50;65.40;;;;;;5036692;28;20121;-75
2023/03/31 00:47:48;;;;;;;8.20;3.75;;;20.50;65.40;;;;;;5036641;28;20031;-75
2023/03/31 00:50:47;;;;;;;8.27;3.53;;;20.50;65.40;;;;;;5019800;28;20030;-75
2023/03/31 00:53:16;;;;;;;9.83;4.10;;;20.50;65.40;;;;;;5036054;28;20037;-75
2023/03/31 00:55:49;;;;;;;12.30;3.50;;;20.50;65.40;;;;;;5036523;28;20023;-76
2023/03/31 00:58:19;;;;;;;12.93;3.53;;;20.50;65.50;;;;;;4969740;28;20423;-76
2023/03/31 01:00:51;;;;;;;7.85;4.00;;;20.50;65.40;;;;;;5035943;28;20038;-76
2023/03/31 01:03:21;;;;;;;11.15;4.32;;;20.50;65.30;;;;;;5019553;28;20498;-76
2023/03/31 01:05:58;;;;;;;8.63;3.78;;;20.50;65.20;;;;;;5036241;28;20031;-76
2023/03/31 01:08:26;;;;;;;8.50;3.40;;;20.50;65.10;;;;;;5036300;28;20373;-76
2023/03/31 01:11:02;;;;;;;8.23;3.67;;;20.50;65.10;;;;;;4969531;28;20050;-76
2023/03/31 01:13:29;;;;;;;9.43;3.97;;;20.50;65.00;;;;;;5035823;28;20047;-76
2023/03/31 01:15:55;;;;;;;9.43;3.55;;;20.50;65.10;;;;;;5036017;28;20045;-76
2023/03/31 01:18:21;;;;;;;8.18;3.92;;;20.50;65.10;;;;;;5035848;28;20539;-76
2023/03/31 01:21:24;;;;;;;7.15;3.60;;;20.50;65.10;;;;;;5038662;28;20078;-74
2023/03/31 01:24:07;;;;;;;9.60;4.35;;;20.50;65.20;;;;;;4913055;29;20036;-75
2023/03/31 01:27:14;;;;;;;7.50;3.50;;;20.50;65.30;;;;;;4968386;28;20084;-75
2023/03/31 01:30:09;;;;;;;8.48;3.63;;;20.40;65.20;;;;;;5039622;28;20149;-76
2023/03/31 01:32:37;;;;;;;9.57;4.00;;;20.50;65.30;;;;;;5040035;28;20058;-75
2023/03/31 01:35:04;;;;;;;;;;;20.40;65.30;;;;;;4973417;28;20062;-75
2023/03/31 01:38:09;;;;;;;7.90;3.92;;;20.40;65.40;;;;;;4972526;28;19975;-76
2023/03/31 01:40:57;;;;;;;7.68;3.75;;;20.40;65.30;;;;;;4972394;28;20042;-75
2023/03/31 01:43:33;;;;;;;8.75;3.40;;;20.40;65.40;;;;;;4943423;28;20043;-75
2023/03/31 01:46:01;;;;;;;10.90;4.30;;;20.40;65.50;;;;;;5022919;28;20062;-75
2023/03/31 01:48:59;;;;;;;9.38;3.92;;;20.40;65.50;;;;;;5039518;28;20118;-75
2023/03/31 01:52:11;;;;;;;11.35;4.18;;;20.40;65.60;;;;;;5032871;28;20108;-75
2023/03/31 01:54:44;;;;;;;10.20;4.10;;;20.40;65.80;;;;;;4992350;28;20043;-75
2023/03/31 01:57:13;;;;;;;7.93;3.90;;;20.40;65.80;;;;;;4973041;28;20035;-75
2023/03/31 01:59:49;;;;;;;7.57;4.00;;;20.40;65.50;;;;;;4971961;28;20035;-75
2023/03/31 02:02:22;;;;;;;10.65;3.95;;;20.40;65.60;;;;;;4972332;28;20027;-75
2023/03/31 02:04:55;;;;;;;9.90;4.10;;;20.40;65.60;;;;;;5039248;28;20081;-75
2023/03/31 02:07:34;;;;;;;10.18;3.72;;;20.40;65.60;;;;;;4972677;28;20035;-75
2023/03/31 02:10:06;;;;;;;9.80;3.40;;;20.40;65.50;;;;;;5039065;28;20105;-76
2023/03/31 02:12:34;;;;;;;11.50;4.38;;;20.40;65.40;;;;;;5039255;28;20043;-75
2023/03/31 02:15:04;;;;;;;7.20;3.70;;;20.40;65.40;;;;;;5038996;28;20028;-75
2023/03/31 02:17:31;;;;;;;10.25;3.78;;;20.40;65.40;;;;;;5039365;28;20400;-75
2023/03/31 02:20:04;;;;;;;8.80;3.50;;;20.40;65.30;;;;;;5038822;28;20505;-75
2023/03/31 02:22:33;;;;;;;8.68;3.75;;;20.40;65.30;;;;;;5039291;28;20031;-76
2023/03/31 02:25:01;;;;;;;9.10;3.83;;;20.40;65.30;;;;;;4972034;28;20035;-75
2023/03/31 02:27:38;;;;;;;7.97;3.80;;;20.40;65.70;;;;;;5038989;28;20464;-75
2023/03/31 02:30:06;;;;;;;7.70;3.55;;;20.40;65.70;;;;;;4971748;28;20379;-75
2023/03/31 02:32:43;;;;;;;8.75;3.67;;;20.40;65.80;;;;;;5055198;28;20040;-75
2023/03/31 02:35:15;;;;;;;7.70;3.33;;;20.40;65.70;;;;;;5038760;28;20034;-76
2023/03/31 02:37:42;;;;;;;8.20;3.58;;;20.40;65.80;;;;;;5022326;28;20389;-76
2023/03/31 02:40:14;;;;;;;7.75;4.05;;;20.40;65.80;;;;;;5038372;28;20034;-75
2023/03/31 02:42:40;;;;;;;8.77;3.92;;;20.40;66.00;;;;;;5038620;28;20500;-75
2023/03/31 02:45:37;;;;;;;14.68;3.90;;;20.40;65.90;;;;;;5055036;28;20030;-75
2023/03/31 02:48:05;;;;;;;10.25;4.38;;;20.40;65.80;;;;;;4970463;28;20092;-75
2023/03/31 02:50:58;;;;;;;8.32;4.20;;;20.30;66.20;;;;;;4971399;28;20031;-75
2023/03/31 02:54:06;;;;;;;9.95;3.63;;;20.40;66.30;;;;;;4969329;28;20082;-75
2023/03/31 02:57:17;;;;;;;11.82;3.67;;;20.40;66.30;;;;;;4988014;28;20035;-76
2023/03/31 03:00:09;;;;;;;13.32;4.65;;;20.30;65.90;;;;;;5054673;28;20030;-76
2023/03/31 03:03:06;;;;;;;10.50;3.83;;;20.40;66.30;;;;;;5038213;28;20099;-75
2023/03/31 03:06:04;;;;;;;11.60;4.15;;;20.30;66.00;;;;;;4954200;28;20059;-76
2023/03/31 03:09:03;;;;;;;10.77;4.30;;;20.30;66.10;;;;;;4971293;28;20469;-76
2023/03/31 03:11:38;;;;;;;10.18;3.92;;;20.40;66.00;;;;;;5037843;28;20041;-76
2023/03/31 03:14:26;;;;;;;8.68;3.75;;;20.40;65.80;;;;;;5021448;28;20034;-76
2023/03/31 03:17:04;;;;;;;6.20;3.50;;;20.40;65.60;;;;;;5038099;28;20023;-75
2023/03/31 03:19:30;;;;;;;8.68;4.00;;;20.40;65.80;;;;;;5038159;28;20035;-75
2023/03/31 03:21:57;;;;;;;10.05;4.00;;;20.40;65.50;;;;;;4971155;28;20388;-75
2023/03/31 03:24:28;;;;;;;9.95;4.20;;;20.40;66.00;;;;;;5038114;28;20035;-75
2023/03/31 03:26:54;;;;;;;9.65;3.85;;;20.40;65.90;;;;;;4971092;28;20069;-75
2023/03/31 03:29:20;;;;;;;9.45;4.20;;;20.40;66.10;;;;;;4970846;28;20441;-75
2023/03/31 03:31:46;;;;;;;8.50;3.95;;;20.40;66.40;;;;;;4970806;28;20111;-75
2023/03/31 03:34:12;;;;;;;8.75;3.90;;;20.40;66.30;;;;;;5021142;28;20034;-75
2023/03/31 03:36:38;;;;;;;8.20;4.03;;;20.40;66.00;;;;;;4971004;28;20427;-75
2023/03/31 03:39:06;;;;;;;8.65;4.05;;;20.30;66.20;;;;;;5037846;28;20113;-75
2023/03/31 03:41:32;;;;;;;9.02;3.78;;;20.30;66.40;;;;;;4970707;28;20106;-75
2023/03/31 03:43:59;;;;;;;11.13;3.75;;;20.30;66.10;;;;;;4969912;28;20047;-75
2023/03/31 03:46:25;;;;;;;7.95;3.60;;;20.30;66.30;;;;;;4971054;28;20163;-75
2023/03/31 03:48:52;;;;;;;6.88;3.60;;;20.30;65.60;;;;;;4970719;28;20458;-75
2023/03/31 03:51:17;;;;;;;8.43;4.05;;;20.40;66.00;;;;;;5037279;28;20551;-76
2023/03/31 03:53:43;;;;;;;8.27;3.72;;;20.40;66.20;;;;;;5037421;28;20055;-75
2023/03/31 03:56:09;;;;;;;9.57;4.00;;;20.30;66.20;;;;;;4970609;28;20092;-75
2023/03/31 03:58:36;;;;;;;8.00;3.83;;;20.40;66.10;;;;;;4970568;28;20488;-75
2023/03/31 04:01:04;;;;;;;7.73;3.93;;;20.40;66.30;;;;;;4970423;28;20027;-75
2023/03/31 04:03:30;;;;;;;8.73;3.67;;;20.40;66.10;;;;;;5037242;28;20269;-75
2023/03/31 04:05:56;;;;;;;5.78;3.20;;;20.30;66.10;;;;;;5037103;28;20512;-75
2023/03/31 04:08:22;;;;;;;9.57;3.35;;;20.40;65.80;;;;;;5053946;28;20106;-75
2023/03/31 04:10:49;;;;;;;9.20;3.47;;;20.40;65.70;;;;;;4970071;28;20114;-75
2023/03/31 04:13:16;;;;;;;7.80;3.70;;;20.40;66.00;;;;;;5037031;28;20476;-75
2023/03/31 04:15:42;;;;;;;7.88;3.70;;;20.40;66.10;;;;;;4970386;28;20073;-75
2023/03/31 04:18:21;;;;;;;9.38;3.88;;;20.40;66.20;;;;;;4970304;28;20035;-75
2023/03/31 04:21:02;;;;;;;7.32;3.67;;;20.40;65.90;;;;;;4969971;28;20027;-75
2023/03/31 04:23:33;;;;;;;10.18;3.83;;;20.40;66.10;;;;;;4970148;28;20031;-75
2023/03/31 04:25:59;;;;;;;8.52;3.58;;;20.40;65.70;;;;;;4970773;28;20023;-75
2023/03/31 04:28:25;;;;;;;9.75;3.88;;;20.40;65.50;;;;;;4970480;28;20030;-75
2023/03/31 04:30:57;;;;;;;6.32;3.45;;;20.40;66.30;;;;;;4969779;28;20383;-75
2023/03/31 04:33:23;;;;;;;5.75;3.25;;;20.40;66.20;;;;;;4970154;28;20373;-76
2023/03/31 04:35:49;;;;;;;7.63;3.53;;;20.40;65.80;;;;;;4969952;28;20042;-75
2023/03/31 04:38:19;;;;;;;6.70;3.20;;;20.40;66.40;;;;;;4970026;28;20038;-76
2023/03/31 04:40:49;;;;;;;7.57;3.33;;;20.40;65.70;;;;;;4969880;28;20608;-75
2023/03/31 04:43:16;;;;;;;6.80;3.20;;;20.40;65.60;;;;;;4970349;28;20031;-75
2023/03/31 04:45:42;;;;;;;8.25;4.20;;;20.40;66.30;;;;;;5036300;28;20513;-75
2023/03/31 04:48:09;;;;;;;6.18;3.15;;;20.40;66.00;;;;;;4970083;28;20109;-75
2023/03/31 04:50:35;;;;;;;8.82;3.95;;;20.40;65.90;;;;;;5036184;28;20047;-75
2023/03/31 04:53:01;;;;;;;7.43;3.75;;;20.40;66.20;;;;;;5036351;28;20045;-75
2023/03/31 04:55:28;;;;;;;9.77;3.33;;;20.40;66.70;;;;;;4969654;28;20034;-75
2023/03/31 04:57:53;;;;;;;5.75;3.17;;;20.40;66.20;;;;;;4969743;28;20469;-75
2023/03/31 05:00:20;;;;;;;10.95;3.70;;;20.40;66.00;;;;;;4969395;28;20034;-76
2023/03/31 05:02:46;;;;;;;7.97;3.40;;;20.40;65.80;;;;;;4969623;28;20046;-75
2023/03/31 05:05:12;;;;;;;7.40;3.47;;;20.40;66.00;;;;;;4969619;28;20023;-76
2023/03/31 05:07:38;;;;;;;8.10;3.47;;;20.40;65.90;;;;;;5036216;28;20057;-76
2023/03/31 05:10:06;;;;;;;9.80;4.28;;;20.40;66.10;;;;;;5036123;28;20455;-75
2023/03/31 05:12:38;;;;;;;7.20;3.53;;;20.40;66.00;;;;;;5036033;28;20092;-76
2023/03/31 05:15:06;;;;;;;5.93;3.25;;;20.40;65.80;;;;;;5036359;28;20073;-76
2023/03/31 05:17:32;;;;;;;6.55;3.33;;;20.40;65.80;;;;;;5036060;28;20059;-76
2023/03/31 05:19:58;;;;;;;7.32;3.60;;;20.40;65.80;;;;;;4969114;28;20041;-76
2023/03/31 05:22:25;;;;;;;8.80;3.28;;;20.40;65.50;;;;;;4969529;28;20455;-75
2023/03/31 05:24:50;;;;;;;8.43;3.50;;;20.50;65.60;;;;;;4969533;28;20304;-75
2023/03/31 05:27:16;;;;;;;8.95;3.65;;;20.50;65.50;;;;;;4969520;28;20430;-75
2023/03/31 05:29:42;;;;;;;5.80;3.38;;;20.50;65.40;;;;;;4969277;28;20514;-75
2023/03/31 05:32:09;;;;;;;6.38;3.38;;;20.50;65.50;;;;;;4969302;28;20031;-75
2023/03/31 05:34:35;;;;;;;6.38;3.25;;;20.50;65.30;;;;;;4969376;28;20035;-75
2023/03/31 05:37:01;;;;;;;7.70;3.65;;;20.50;65.50;;;;;;4969238;28;20055;-76
2023/03/31 05:39:31;;;;;;;9.13;3.50;;;20.50;65.50;;;;;;4969055;28;20824;-75
2023/03/31 05:42:00;;;;;;;7.97;3.45;;;20.50;65.30;;;;;;4969180;28;20031;-75
2023/03/31 05:44:28;;;;;;;10.77;3.70;;;20.50;65.40;;;;;;5036053;28;20053;-76
2023/03/31 05:46:54;;;;;;;7.45;3.58;;;20.50;65.40;;;;;;4969614;28;20555;-75
2023/03/31 05:49:20;;;;;;;8.85;3.72;;;20.50;65.50;;;;;;4969119;28;20058;-75
2023/03/31 05:51:46;;;;;;;6.80;3.60;;;20.50;65.50;;;;;;5035606;28;20023;-75
2023/03/31 05:54:12;;;;;;;6.95;3.30;;;20.50;65.60;;;;;;5035776;28;20450;-75
2023/03/31 05:56:38;;;;;;;7.78;3.58;;;20.50;66.00;;;;;;4969016;28;20106;-76
2023/03/31 05:59:04;;;;;;;9.27;3.53;;;20.50;65.90;;;;;;5035644;28;20323;-75
2023/03/31 06:01:30;;;;;;;9.38;3.70;;;20.40;65.90;;;;;;4968933;28;20023;-75
2023/03/31 06:03:56;;;;;;;7.90;3.38;;;20.50;65.50;;;;;;4968987;28;20023;-75
2023/03/31 06:06:22;;;;;;;7.35;3.58;;;20.50;66.20;;;;;;4970574;28;20100;-75
2023/03/31 06:08:48;;;;;;;10.20;3.88;;;20.40;66.30;;;;;;4972356;28;20380;-75
2023/03/31 06:11:20;;;;;;;7.07;3.80;;;20.40;66.00;;;;;;4972005;28;20042;-75
2023/03/31 06:13:46;;;;;;;12.10;4.38;;;20.40;66.40;;;;;;4952828;28;20050;-75
2023/03/31 06:16:13;;;;;;;13.63;4.25;;;20.40;66.40;;;;;;5019521;28;20114;-75
2023/03/31 06:18:39;;;;;;;13.82;3.83;;;20.40;66.70;;;;;;5019201;28;20489;-75
2023/03/31 06:21:06;;;;;;;7.70;3.58;;;20.50;66.60;;;;;;4952524;29;20069;-75
2023/03/31 06:23:32;;;;;;;8.68;3.60;;;20.40;66.70;;;;;;5035822;28;20502;-75
2023/03/31 06:26:01;;;;;;;10.25;3.50;;;20.50;66.40;;;;;;4952858;28;20036;-76
2023/03/31 06:28:27;;;;;;;9.43;4.07;;;20.40;66.60;;;;;;5019248;28;20031;-75
2023/03/31 06:31:23;;;;;;;7.50;3.95;;;20.50;66.10;;;;;;4952551;28;20801;-75
2023/03/31 06:33:50;;;;;;;9.38;4.00;;;20.50;66.10;;;;;;4956847;28;20122;-75
2023/03/31 06:36:17;;;;;;;7.55;4.03;;;20.50;66.00;;;;;;4952719;28;20555;-75
2023/03/31 06:38:44;;;;;;;8.52;4.07;;;20.50;66.10;;;;;;4952716;28;20027;-75
2023/03/31 06:41:12;;;;;;;9.30;3.80;;;20.50;66.10;;;;;;5018739;28;20066;-75
2023/03/31 06:43:38;;;;;;;11.85;3.92;;;20.50;66.50;;;;;;5002579;28;20043;-75
2023/03/31 06:46:04;;;;;;;6.90;3.53;;;20.50;66.30;;;;;;5018956;28;20065;-75
2023/03/31 06:48:30;;;;;;;12.68;4.57;;;20.50;66.30;;;;;;4952481;29;20027;-74
2023/03/31 06:50:59;;;;;;;8.95;4.78;;;20.40;65.60;;;;;;5018259;28;20069;-74
2023/03/31 06:53:25;;;;;;;9.90;4.25;;;20.50;65.60;;;;;;4952282;28;20114;-75
2023/03/31 06:55:51;;;;;;;9.60;4.65;;;20.50;65.50;;;;;;5018461;28;20548;-74
2023/03/31 06:58:17;;;;;;;9.55;4.80;;;20.50;65.40;;;;;;4952524;28;20035;-74
2023/03/31 07:00:44;;;;;;;10.32;4.75;;;20.50;65.50;;;;;;4952203;28;20035;-75
2023/03/31 07:03:11;;;;;;;8.40;4.13;;;20.50;65.40;;;;;;5018257;28;20023;-75
2023/03/31 07:05:37;;;;;;;11.57;5.05;;;20.50;65.70;;;;;;4952623;29;20110;-75
2023/03/31 07:08:03;;;;;;;9.15;4.32;;;20.50;65.40;;;;;;4952189;28;20497;-75
2023/03/31 07:10:30;;;;;;;9.98;4.20;;;20.50;65.50;;;;;;4952060;28;20063;-75
2023/03/31 07:12:56;;;;;;;9.82;4.25;;;20.60;66.30;;;;;;4951871;28;20035;-75
2023/03/31 07:15:23;;;;;;;6.93;3.88;;;20.60;66.30;;;;;;4952092;29;20031;-75
2023/03/31 07:17:52;;;;;;;8.48;4.35;;;20.60;65.70;;;;;;5018101;28;20057;-74
2023/03/31 07:20:19;;;;;;;7.47;3.95;;;20.50;65.70;;;;;;4951733;29;20054;-75
2023/03/31 07:22:47;;;;;;;8.02;3.95;;;20.60;66.10;;;;;;4952091;28;20051;-74
2023/03/31 07:25:15;;;;;;;7.40;4.40;;;20.60;65.90;;;;;;4951965;28;20031;-75
2023/03/31 07:27:41;;;;;;;7.78;4.10;;;20.60;66.20;;;;;;5017985;28;20031;-75
2023/03/31 07:30:14;;;;;;;8.40;3.90;;;20.60;66.10;;;;;;4951650;28;20481;-75
2023/03/31 07:32:40;;;;;;;8.75;4.20;;;20.60;66.20;;;;;;4951754;28;20032;-74
2023/03/31 07:35:08;;;;;;;9.90;4.75;;;20.60;66.00;;;;;;4951814;28;20038;-74
2023/03/31 07:37:38;;;;;;;7.82;4.00;;;20.60;66.00;;;;;;5018252;28;20488;-73
2023/03/31 07:40:05;;;;;;;8.05;4.20;;;20.60;66.90;;;;;;5017494;28;20027;-74
2023/03/31 07:42:32;;;;;;;8.52;4.20;;;20.60;66.60;;;;;;4951483;28;20035;-74
2023/03/31 07:44:58;;;;;;;8.77;4.10;;;20.60;66.70;;;;;;5034392;28;20102;-74
2023/03/31 07:47:24;;;;;;;15.38;4.22;;;20.60;66.40;;;;;;5017487;28;20532;-75
2023/03/31 07:49:50;;;;;;;12.02;4.60;;;20.70;66.70;;;;;;4951275;28;20067;-75
2023/03/31 07:52:25;;;;;;;19.38;3.85;;;20.70;67.10;;;;;;4945423;28;20051;-77
2023/03/31 07:54:51;;;;;;;8.93;3.72;;;20.70;65.10;;;;;;4936081;28;20090;-74
2023/03/31 07:57:18;;;;;;;10.95;3.35;;;20.60;65.50;;;;;;4926871;28;20762;-74
2023/03/31 07:59:46;;;;;;;11.60;2.78;;;20.50;60.50;;;;;;4927922;29;20559;-75
2023/03/31 08:02:15;;;;;;;9.05;2.30;;;20.30;58.50;;;;;;4928341;29;20031;-76
2023/03/31 08:04:41;;;;;;;12.45;2.65;;;20.30;58.20;;;;;;4942909;28;20618;-76
2023/03/31 08:07:09;;;;;;;11.05;2.90;;;20.20;57.80;;;;;;4928508;29;20513;-76
2023/03/31 08:09:36;;;;;;;10.20;2.55;;;20.20;56.30;;;;;;4928256;29;20039;-76
2023/03/31 08:12:02;;;;;;;8.27;2.40;;;20.10;55.30;;;;;;4928411;29;20035;-75
2023/03/31 08:14:28;;;;;;;6.55;2.22;;;20.10;56.60;;;;;;4928280;29;20051;-72
2023/03/31 08:16:54;;;;;;;14.52;3.35;;;20.20;57.30;;;;;;4928402;29;20032;-73
2023/03/31 08:19:21;;;;;;;13.43;4.00;;;20.30;58.20;;;;;;4928032;29;20032;-74
2023/03/31 08:21:47;;;;;;;13.85;5.28;;;20.40;57.10;;;;;;4942434;28;20042;-71
2023/03/31 08:24:12;;;;;;;17.30;5.97;;;20.50;58.00;;;;;;4942012;28;20033;-72
2023/03/31 08:26:40;;;;;;;15.40;5.07;;;20.60;58.40;;;;;;4946281;28;20039;-72
2023/03/31 08:29:06;;;;;;;18.17;5.68;;;20.60;58.80;;;;;;4943676;28;20038;-72
2023/03/31 08:31:32;;;;;;;17.63;5.28;;;20.60;58.90;;;;;;4976044;28;20041;-72
2023/03/31 08:33:58;;;;;;;17.45;6.05;;;20.60;59.10;;;;;;4976464;28;20035;-73
2023/03/31 08:36:25;;;;;;;16.73;5.10;;;20.70;59.30;;;;;;4959378;28;20428;-72
2023/03/31 08:38:52;;;;;;;11.50;4.72;;;20.70;59.60;;;;;;4956244;28;20599;-73
2023/03/31 08:42:00;;;;;;;12.60;4.75;;;20.80;59.70;;;;;;5024133;28;20037;-72
2023/03/31 08:44:35;;;;;;;11.27;4.28;;;20.80;59.90;;;;;;4959836;28;20034;-71
2023/03/31 08:47:02;;;;;;;17.00;4.38;;;20.80;60.00;;;;;;4961635;28;20405;-72
2023/03/31 08:49:36;;;;;;;14.27;5.03;;;20.80;60.20;;;;;;4997568;28;20484;-71
2023/03/31 08:52:06;;;;;;;15.80;4.18;;;20.80;60.40;;;;;;4944468;28;20059;-71
2023/03/31 08:54:37;;;;;;;13.88;4.40;;;20.80;60.50;;;;;;4943168;28;20030;-72
2023/03/31 08:57:11;;;;;;;16.13;5.00;;;20.80;60.70;;;;;;4945532;28;20815;-72
2023/03/31 08:59:37;;;;;;;13.25;4.78;;;20.80;60.90;;;;;;4944213;28;20118;-72
2023/03/31 09:02:17;;;;;;;15.00;3.92;;;20.80;61.10;;;;;;4961947;28;20026;-72
2023/03/31 09:05:06;;;;;;;11.15;4.40;;;20.80;61.40;;;;;;4940867;28;20031;-71
2023/03/31 09:07:44;;;;;;;11.73;4.30;;;20.80;61.50;;;;;;4941835;28;20027;-71
2023/03/31 09:10:27;;;;;;;14.43;4.22;;;20.80;61.60;;;;;;4946395;28;20477;-71
2023/03/31 09:13:11;;;;;;;16.17;4.50;;;20.80;61.80;;;;;;4945591;28;20113;-71
2023/03/31 09:15:41;;;;;;;12.88;4.05;;;20.80;61.90;;;;;;4946104;28;21111;-71
2023/03/31 09:21:17;;;;;;;13.68;4.30;;;20.80;62.00;;;;;;5797484;22;20063;-73
2023/03/31 09:24:07;;;;;;;11.60;3.55;;;20.80;61.90;;;;;;4915423;29;20032;-72
2023/03/31 09:26:33;;;;;;;12.65;3.63;;;20.80;61.30;;;;;;4927602;29;20070;-72
2023/03/31 09:29:00;;;;;;;12.95;3.55;;;20.90;60.60;;;;;;4927878;29;20486;-71
2023/03/31 09:31:27;;;;;;;7.25;2.67;;;20.80;60.50;;;;;;4928365;29;20042;-72
2023/03/31 09:34:00;;;;;;;13.18;3.55;;;20.80;59.80;;;;;;4928851;29;20079;-72
2023/03/31 09:36:26;;;;;;;9.27;3.25;;;20.80;59.80;;;;;;4929806;29;20036;-72
2023/03/31 09:38:52;;;;;;;9.90;3.22;;;20.80;59.30;;;;;;4927364;29;20503;-71
2023/03/31 09:41:19;;;;;;;12.77;2.53;;;20.80;58.50;;;;;;4931055;29;20091;-71
2023/03/31 09:43:46;;;;;;;8.95;2.72;;;20.70;58.10;;;;;;4946045;29;20114;-72
2023/03/31 09:46:29;;;;;;;8.30;2.90;;;20.70;58.00;;;;;;4935700;29;20027;-72
2023/03/31 09:49:01;;;;;;;12.93;3.50;;;20.70;57.40;;;;;;4952587;28;20041;-72
2023/03/31 09:51:32;;;;;;;10.70;3.78;;;20.70;57.20;;;;;;4948536;28;20031;-72
2023/03/31 09:54:06;;;;;;;21.42;3.92;;;20.70;56.60;;;;;;4916126;29;20078;-72
2023/03/31 09:56:45;;;;;;;17.10;4.13;;;20.80;56.90;;;;;;4929561;29;20111;-73
2023/03/31 09:59:18;;;;;;;10.02;3.65;;;20.70;57.10;;;;;;4932657;29;20090;-72
2023/03/31 10:01:50;;;;;;;12.90;3.60;;;20.70;57.30;;;;;;4931156;28;20035;-72
2023/03/31 10:04:25;;;;;;;10.60;3.30;;;20.80;57.60;;;;;;4927978;29;20651;-72
2023/03/31 10:06:52;;;;;;;11.30;3.63;;;20.70;57.90;;;;;;4919035;29;20054;-72
2023/03/31 10:09:23;;;;;;;11.82;3.60;;;20.70;58.20;;;;;;4932120;29;20101;-72
2023/03/31 10:12:03;;;;;;;8.88;3.20;;;20.80;58.60;;;;;;4915039;29;20043;-72
2023/03/31 10:14:47;;;;;;;10.90;3.33;;;20.80;58.70;;;;;;4932163;29;20040;-72
2023/03/31 10:17:19;;;;;;;19.42;3.75;;;20.80;58.90;;;;;;4915912;29;20405;-72
2023/03/31 10:20:05;;;;;;;9.32;3.25;;;20.80;59.10;;;;;;4933124;29;20034;-72
2023/03/31 10:22:31;;;;;;;8.93;3.60;;;20.80;59.40;;;;;;4894874;29;20036;-72
2023/03/31 10:25:19;;;;;;;9.93;3.30;;;20.80;60.10;;;;;;4916281;29;20028;-72
2023/03/31 10:27:48;;;;;;;10.63;3.20;;;20.80;59.60;;;;;;4911583;29;20511;-72
2023/03/31 10:30:22;;;;;;;17.85;3.72;;;20.80;59.70;;;;;;4931498;29;20036;-71
2023/03/31 10:32:48;;;;;;;11.48;3.38;;;20.80;59.80;;;;;;4911105;29;20032;-72
2023/03/31 10:35:28;;;;;;;22.50;4.28;;;20.80;59.80;;;;;;4931841;29;20047;-71
2023/03/31 10:38:07;;;;;;;11.95;3.42;;;20.80;59.80;;;;;;4931446;29;20039;-72
2023/03/31 10:40:35;;;;;;;20.90;3.30;;;20.90;60.10;;;;;;4927408;28;20043;-71
2023/03/31 10:43:16;;;;;;;7.22;3.28;;;20.80;60.70;;;;;;4931520;29;20106;-71
2023/03/31 10:45:47;;;;;;;12.13;3.33;;;20.80;60.20;;;;;;4931875;29;20024;-72
2023/03/31 10:51:14;;;;;;;10.15;3.33;;;20.90;60.50;;;;;;5492641;23;20051;-71
2023/03/31 10:53:47;;;;;;;11.70;3.67;;;20.90;60.50;;;;;;4968924;28;20098;-71
2023/03/31 10:56:16;;;;;;;10.38;3.22;;;20.90;60.50;;;;;;4974355;28;20094;-72
2023/03/31 10:58:55;;;;;;;11.07;3.65;;;20.90;60.60;;;;;;4970490;28;20424;-71
2023/03/31 11:01:49;;;;;;;21.47;3.23;;;20.90;60.70;;;;;;4943866;28;20023;-71
2023/03/31 11:04:24;;;;;;;8.93;2.85;;;20.90;60.90;;;;;;4948437;29;20054;-71
2023/03/31 11:07:02;;;;;;;11.13;3.35;;;20.90;60.90;;;;;;4949681;29;20437;-71
2023/03/31 11:09:49;;;;;;;9.10;3.00;;;20.90;61.00;;;;;;4929557;28;20043;-71
2023/03/31 11:12:23;;;;;;;9.65;3.50;;;20.90;61.00;;;;;;4948810;28;20086;-71
2023/03/31 11:15:11;;;;;;;9.20;2.90;;;20.90;61.00;;;;;;4947456;28;20523;-69
2023/03/31 11:20:29;;;;;;;15.60;3.53;;;20.80;61.10;;;;;;5071009;23;20055;-71
2023/03/31 11:23:23;;;;;;;8.43;2.95;;;20.80;61.10;;;;;;4928341;29;20114;-72
2023/03/31 11:26:01;;;;;;;12.73;3.00;;;20.90;61.10;;;;;;4924721;29;20516;-72
2023/03/31 11:28:50;;;;;;;7.13;3.25;;;20.90;61.40;;;;;;4930148;29;20036;-71
2023/03/31 11:31:29;;;;;;;12.45;3.13;;;20.90;61.40;;;;;;4913339;29;20027;-72
2023/03/31 11:34:07;;;;;;;8.90;3.40;;;20.90;62.10;;;;;;4942078;28;20035;-72
2023/03/31 11:37:03;;;;;;;10.27;3.58;;;20.90;61.50;;;;;;4932204;28;20070;-72
2023/03/31 11:39:38;;;;;;;11.32;2.92;;;20.90;61.50;;;;;;4899476;29;20064;-72
2023/03/31 11:42:20;;;;;;;12.15;3.28;;;21.00;61.60;;;;;;4915407;29;20035;-72
2023/03/31 11:45:03;;;;;;;8.32;3.40;;;21.00;61.60;;;;;;4932162;29;20114;-72
2023/03/31 11:47:36;;;;;;;8.63;3.10;;;21.00;61.60;;;;;;4900261;29;20103;-73
2023/03/31 11:50:15;;;;;;;8.70;3.50;;;21.00;61.50;;;;;;4899370;29;20052;-72
2023/03/31 11:52:47;;;;;;;8.17;3.47;;;21.00;61.60;;;;;;4915239;29;20046;-72
2023/03/31 11:55:17;;;;;;;7.28;2.90;;;21.00;61.70;;;;;;4935894;28;20358;-72
2023/03/31 11:57:58;;;;;;;9.43;3.05;;;21.00;61.80;;;;;;4950348;29;20031;-71
2023/03/31 12:00:28;;;;;;;10.75;3.00;;;21.00;61.80;;;;;;4933087;29;20412;-72
2023/03/31 12:03:20;;;;;;;4.53;2.65;;;21.00;62.00;;;;;;4953942;28;20024;-72
2023/03/31 12:05:55;;;;;;;12.88;3.38;;;21.00;62.00;;;;;;4933208;29;20042;-72
2023/03/31 12:08:39;;;;;;;9.32;3.45;;;21.00;62.00;;;;;;4932823;28;20086;-71
2023/03/31 12:11:11;;;;;;;11.48;3.30;;;21.00;62.00;;;;;;4932120;29;20077;-74
2023/03/31 12:14:00;;;;;;;9.45;3.65;;;21.00;62.70;;;;;;4932835;29;20036;-73
2023/03/31 12:16:32;;;;;;;8.77;3.15;;;21.00;62.50;;;;;;4931600;29;20035;-74
2023/03/31 12:19:15;;;;;;;10.68;3.78;;;21.00;62.40;;;;;;4930955;29;20031;-73
2023/03/31 12:21:47;;;;;;;12.70;3.70;;;21.00;62.30;;;;;;4931207;29;20039;-73
2023/03/31 12:24:13;;;;;;;11.98;3.67;;;21.00;62.30;;;;;;4910739;29;20024;-73
2023/03/31 12:26:52;;;;;;;10.38;3.55;;;21.00;62.40;;;;;;4913359;29;21137;-73
2023/03/31 12:29:31;;;;;;;11.17;3.60;;;21.00;62.30;;;;;;4930358;29;20094;-74
2023/03/31 12:32:02;;;;;;;13.20;3.30;;;21.00;62.40;;;;;;4913493;29;20091;-74
2023/03/31 12:34:29;;;;;;;10.43;3.40;;;21.00;62.50;;;;;;4930127;29;20075;-73
2023/03/31 12:37:12;;;;;;;10.90;3.78;;;21.00;62.60;;;;;;4930472;29;20071;-73
2023/03/31 12:40:08;;;;;;;8.07;3.40;;;21.00;62.70;;;;;;4929518;29;20623;-72
2023/03/31 12:42:46;;;;;;;13.65;3.60;;;21.00;62.60;;;;;;4930377;29;20497;-72
2023/03/31 12:45:30;;;;;;;13.57;3.00;;;21.00;62.60;;;;;;4912992;29;20032;-73
2023/03/31 12:48:20;;;;;;;11.25;3.58;;;21.00;63.00;;;;;;4930106;29;20062;-72
2023/03/31 12:51:39;;;;;;;11.18;3.40;;;21.00;62.60;;;;;;4929775;29;20111;-72
2023/03/31 12:54:11;;;;;;;10.68;3.88;;;21.00;62.60;;;;;;4929744;29;20071;-72
2023/03/31 12:56:58;;;;;;;12.38;4.70;;;21.00;63.00;;;;;;4912741;29;20100;-72
2023/03/31 12:59:35;;;;;;;16.80;5.22;;;21.00;62.90;;;;;;4929475;29;20099;-72
2023/03/31 13:02:15;;;;;;;10.13;4.63;;;21.00;63.20;;;;;;4929522;29;20028;-72
2023/03/31 13:04:42;;;;;;;9.60;4.40;;;21.00;63.50;;;;;;4930216;29;20032;-72
2023/03/31 13:07:25;;;;;;;13.27;4.50;;;21.00;63.50;;;;;;4930162;29;20076;-73
2023/03/31 13:09:56;;;;;;;8.40;4.32;;;21.10;63.70;;;;;;4929109;29;20043;-72
2023/03/31 13:12:26;;;;;;;9.40;3.90;;;21.10;64.20;;;;;;4930119;29;20485;-73
2023/03/31 13:14:58;;;;;;;12.95;4.97;;;21.10;63.50;;;;;;4931030;29;20035;-72
2023/03/31 13:17:34;;;;;;;12.02;4.07;;;21.10;64.30;;;;;;4901361;29;20032;-73
2023/03/31 13:20:27;;;;;;;11.25;3.85;;;21.10;64.00;;;;;;4916939;29;20106;-73